x

Buoy I01 - Eastern Maine Shelf (44034) Wave Buoy

5:04pm - Sat 3rd Dec 2016 All times are EST. -5 hours from GMT.

  • Sig Wave height 3.0ft
  • Peak Period 4s
  • Wind
    22mph, 29mph gusts
  • Sea Temp 51°f
  • Air Temp 39°f
  • Sea Pressure 1010mb
  • Buoy I01 - Eastern Maine Shelf
  • Buoy I01 - Eastern Maine Shelf

More Historic Weather Station data

Upgrade to MSW Pro to gain access to the past 30 days of data for over 8000 Wavebouys and Weather Stations around the globe.

Join Pro

Comparision Forecast

View Surf forecast
   
Sat 12/03 5:04pm 3ft 4s 22 29 mph 1010mb 51f 39f
4:04pm 3.5ft 4s 25 31 mph 1008.9mb 51f 39f
3:04pm 3.5ft 4s 22 27 mph 1008.2mb 51f 39f
2:04pm 3.5ft 5s 22 27 mph 1007.3mb 51f 39f
1:04pm 4.5ft 4s 25 29 mph 1006.5mb 51f 40f
12:04pm 4ft 6s 20 25 mph 1006.1mb 51f 40f
11:04am 4.5ft 4s 20 25 mph 1005.7mb 51f 40f
10:04am 4.5ft 6s 20 25 mph 1005.5mb 51f 40f
9:04am 4.5ft 6s 20 27 mph 1004.7mb 51f 40f
8:04am 4.5ft 6s 20 27 mph 1004.3mb 51f 40f
7:04am 4.5ft 6s 22 27 mph 1003.7mb 51f 41f
6:04am 4ft 6s 20 25 mph 1003.2mb 51f 42f
5:04am 4.5ft 6s 20 25 mph 1002.7mb 51f 42f
4:04am 4.5ft 6s 20 25 mph 1002.4mb 51f 42f
3:04am 4ft 6s 18 20 mph 1002.3mb 51f 42f
2:04am 4.5ft 8s 20 27 mph 1002.2mb 51f 41f
1:04am 4.5ft 6s 16 20 mph 1001.9mb 51f 43f
12:04am 4.5ft 8s 18 22 mph 1002mb 51f 43f
Fri 12/02 11:04pm 4.5ft 8s 20 22 mph 1001.9mb 51f 47f
10:04pm 4.5ft 8s 13 16 mph 1002.1mb 51f 47f
9:04pm 4.5ft 8s 11 16 mph 1002.5mb 51f 47f
8:04pm 4.5ft 8s 9 11 mph 1002.9mb 51f 48f
7:04pm 4.5ft 11s 4 7 mph 1003.4mb 51f 47f
6:04pm 4.5ft 11s 13 16 mph 1003.6mb 51f 47f
5:04pm 5ft 8s 9 11 mph 1003.9mb 51f 47f
3:04pm 5.5ft 6s 13 16 mph 1003.6mb 51f 48f
2:04pm 6ft 11s 13 16 mph 1003.2mb 51f 48f
1:04pm 6ft 8s 13 16 mph 1003mb 51f 47f
12:04pm 6ft 11s 13 18 mph 1003.2mb 51f 46f
11:04am 6ft 11s 13 16 mph 1003.9mb 51f 46f
10:04am 7.5ft 11s 16 18 mph 1004.5mb 51f 46f
9:04am 6ft 8s 16 18 mph 1004.5mb 51f 46f
8:04am 7ft 11s 13 16 mph 1004.3mb 51f 46f
7:04am 7ft 11s 18 20 mph 1003.9mb 51f 45f
6:04am 6ft 11s 18 22 mph 1003mb 51f 46f
5:04am 6ft 8s 20 25 mph 1002.1mb 51f 45f
4:04am 7ft 8s 22 25 mph 1001.4mb 51f 46f
3:04am 5.5ft 11s 20 25 mph 1001.3mb 51f 46f
2:04am 5.5ft 8s 18 22 mph 1000.6mb 51f 46f
1:04am 5ft 8s 20 25 mph 999.6mb 51f 47f
12:04am 5ft 8s 20 25 mph 999.3mb 51f 47f
Thu 12/01 11:04pm 5ft 8s 13 18 mph 999.1mb 51f 45f
10:04pm 5ft 8s 13 16 mph 998.5mb 51f 43f
9:04pm 5ft 11s 13 16 mph 998.4mb 51f 42f
8:04pm 5ft 11s 13 16 mph 998.2mb 51f 42f
7:04pm 5ft 8s 18 20 mph 997.9mb 51f 41f
6:04pm 5.5ft 8s 18 22 mph 997.7mb 51f 41f
5:04pm 5.5ft 6s 20 25 mph 996.7mb 51f 41f
4:04pm 7.5ft 8s 22 27 mph 995.4mb 51f 41f
3:04pm 8ft 8s 22 29 mph 993.7mb 51f 42f
2:04pm 9ft 8s 25 31 mph 992mb 51f 46f
12:04pm 13.5ft 11s 18 25 mph 990.1mb 51f 51f
11:04am 13ft 8s 22 29 mph 990.6mb 51f 52f
10:04am 15.5ft 11s 31 38 mph 992.2mb 51f 51f
9:04am 14.5ft 8s 36 43 mph 994.3mb 51f 50f
8:04am 16ft 8s 40 49 mph 996.6mb 51f 49f
7:04am 11ft 8s 38 47 mph 998.4mb 51f 48f
6:04am 11ft 8s 36 45 mph 1001.7mb 51f 47f
5:04am 10ft 8s 34 40 mph 1004.3mb 51f 47f
4:04am 10ft 6s 31 38 mph 1006.9mb 51f 47f
3:04am 8.5ft 6s 27 34 mph 1009.4mb 51f 47f
2:04am 7.5ft 6s 29 34 mph 1009.9mb 51f 46f
1:04am 7.5ft 5s 27 34 mph 1011mb 51f 46f
12:04am 4.5ft 5s 25 29 mph 1012.7mb 51f 45f
Wed 11/30 11:04pm 4.5ft 5s 22 27 mph 1013.4mb 51f 46f
10:04pm 4.5ft 5s 22 31 mph 1014.5mb 51f 46f
9:04pm 6ft 8s 20 25 mph 1015.7mb 51f 46f
8:04pm 7.5ft 8s 22 27 mph 1016.5mb 51f 46f
7:04pm 6.5ft 8s 22 27 mph 1016.8mb 51f 46f
5:04pm 5ft 8s 20 22 mph 1017.6mb 51f 44f
4:04pm 5ft 8s 16 20 mph 1017.6mb 51f 43f
3:04pm 4.5ft 8s 13 18 mph 1017mb 51f 42f
2:04pm 5ft 6s 16 20 mph 1016.5mb 51f 41f
1:04pm 5ft 8s 20 25 mph 1015.5mb 51f 41f
12:04pm 4.5ft 8s 16 20 mph 1015.3mb 51f 41f
11:04am 5ft 6s 11 16 mph 1015.4mb 51f 41f
10:04am 5ft 8s 16 18 mph 1015.8mb 51f 41f
9:04am 6ft 8s 11 16 mph 1015mb 51f 41f
8:04am 6ft 8s 18 22 mph 1013.1mb 51f 42f
7:04am 6ft 8s 20 25 mph 1011.6mb 51f 44f
6:04am 7ft 8s 20 25 mph 1011.3mb 51f 44f
5:04am 8.5ft 8s 20 25 mph 1009.2mb 51f 46f
4:04am 10.5ft 8s 16 22 mph 1007.7mb 50f 49f
3:04am 12ft 8s 13 18 mph 1006.7mb 50f 50f
2:04am 12ft 8s 13 20 mph 1006.7mb 51f 53f
1:04am 10ft 8s 27 36 mph 1006.5mb 51f 54f